sensor_id;sensor_type;location;lat;lon;timestamp;pressure;altitude;pressure_sealevel;temperature;humidity
78373;BME280;67656;52.074;4.758;2023-03-12T00:04:18;101132.06;;;1.18;100.00
78373;BME280;67656;52.074;4.758;2023-03-12T00:09:19;101126.69;;;1.09;100.00
78373;BME280;67656;52.074;4.758;2023-03-12T00:14:19;101117.97;;;1.05;100.00
78373;BME280;67656;52.074;4.758;2023-03-12T00:19:20;101126.69;;;1.07;100.00
78373;BME280;67656;52.074;4.758;2023-03-12T00:24:21;101138.78;;;1.05;100.00
78373;BME280;67656;52.074;4.758;2023-03-12T00:29:21;101133.66;;;1.10;100.00
78373;BME280;67656;52.074;4.758;2023-03-12T00:34:21;101114.59;;;1.11;100.00
78373;BME280;67656;52.074;4.758;2023-03-12T00:39:22;101099.91;;;1.12;100.00
78373;BME280;67656;52.074;4.758;2023-03-12T00:44:22;101089.44;;;1.10;100.00
78373;BME280;67656;52.074;4.758;2023-03-12T00:49:22;101097.25;;;1.10;100.00
78373;BME280;67656;52.074;4.758;2023-03-12T00:54:22;101083.34;;;1.08;100.00
78373;BME280;67656;52.074;4.758;2023-03-12T00:59:23;101084.13;;;1.02;100.00
78373;BME280;67656;52.074;4.758;2023-03-12T01:04:23;101088.53;;;1.05;100.00
78373;BME280;67656;52.074;4.758;2023-03-12T01:09:24;101090.28;;;1.06;100.00
78373;BME280;67656;52.074;4.758;2023-03-12T01:14:26;101086.72;;;1.01;100.00
78373;BME280;67656;52.074;4.758;2023-03-12T01:19:26;101091.94;;;1.01;100.00
78373;BME280;67656;52.074;4.758;2023-03-12T01:24:27;101092.78;;;1.01;100.00
78373;BME280;67656;52.074;4.758;2023-03-12T01:29:27;101071.13;;;1.01;100.00
78373;BME280;67656;52.074;4.758;2023-03-12T01:34:27;101072.09;;;1.09;100.00
78373;BME280;67656;52.074;4.758;2023-03-12T01:39:28;101084.31;;;1.12;100.00
78373;BME280;67656;52.074;4.758;2023-03-12T01:44:28;101060.13;;;1.17;100.00
78373;BME280;67656;52.074;4.758;2023-03-12T01:49:31;101054.06;;;1.18;100.00
78373;BME280;67656;52.074;4.758;2023-03-12T01:54:46;101045.31;;;1.13;100.00
78373;BME280;67656;52.074;4.758;2023-03-12T01:59:51;101034.97;;;1.16;100.00
78373;BME280;67656;52.074;4.758;2023-03-12T02:05:02;101029.81;;;1.19;100.00
78373;BME280;67656;52.074;4.758;2023-03-12T02:10:04;101008.13;;;1.20;100.00
78373;BME280;67656;52.074;4.758;2023-03-12T02:15:05;101012.53;;;1.23;100.00
78373;BME280;67656;52.074;4.758;2023-03-12T02:25:41;100969.28;;;1.30;100.00
78373;BME280;67656;52.074;4.758;2023-03-12T02:30:44;100971.06;;;1.35;100.00
78373;BME280;67656;52.074;4.758;2023-03-12T02:35:46;100970.97;;;1.28;100.00
78373;BME280;67656;52.074;4.758;2023-03-12T02:40:47;100956.19;;;1.22;100.00
78373;BME280;67656;52.074;4.758;2023-03-12T02:45:48;100956.19;;;1.23;100.00
78373;BME280;67656;52.074;4.758;2023-03-12T02:50:48;100957.09;;;1.26;100.00
78373;BME280;67656;52.074;4.758;2023-03-12T02:55:49;100956.28;;;1.31;100.00
78373;BME280;67656;52.074;4.758;2023-03-12T03:00:49;100951.88;;;1.24;100.00
78373;BME280;67656;52.074;4.758;2023-03-12T03:05:50;100952.75;;;1.26;100.00
78373;BME280;67656;52.074;4.758;2023-03-12T03:10:51;100939.72;;;1.25;100.00
78373;BME280;67656;52.074;4.758;2023-03-12T03:15:51;100941.47;;;1.26;100.00
78373;BME280;67656;52.074;4.758;2023-03-12T03:21:05;100927.63;;;1.27;100.00
78373;BME280;67656;52.074;4.758;2023-03-12T03:26:06;100905.97;;;1.28;100.00
78373;BME280;67656;52.074;4.758;2023-03-12T03:31:07;100902.47;;;1.26;100.00
78373;BME280;67656;52.074;4.758;2023-03-12T03:36:11;100912.25;;;1.48;100.00
78373;BME280;67656;52.074;4.758;2023-03-12T03:41:18;100891.53;;;1.58;100.00
78373;BME280;67656;52.074;4.758;2023-03-12T03:46:19;100882.06;;;1.63;100.00
78373;BME280;67656;52.074;4.758;2023-03-12T03:51:25;100877.72;;;1.60;100.00
78373;BME280;67656;52.074;4.758;2023-03-12T03:56:30;100874.22;;;1.60;100.00
78373;BME280;67656;52.074;4.758;2023-03-12T04:01:32;100863.78;;;1.53;100.00
78373;BME280;67656;52.074;4.758;2023-03-12T04:06:34;100863.78;;;1.53;100.00
78373;BME280;67656;52.074;4.758;2023-03-12T04:11:35;100854.22;;;1.52;100.00
78373;BME280;67656;52.074;4.758;2023-03-12T04:16:37;100844.66;;;1.50;100.00
78373;BME280;67656;52.074;4.758;2023-03-12T04:21:38;100850.69;;;1.46;100.00
78373;BME280;67656;52.074;4.758;2023-03-12T04:26:38;100847.19;;;1.45;100.00
78373;BME280;67656;52.074;4.758;2023-03-12T04:31:40;100835.94;;;1.43;100.00
78373;BME280;67656;52.074;4.758;2023-03-12T04:36:40;100830.72;;;1.43;100.00
78373;BME280;67656;52.074;4.758;2023-03-12T04:41:41;100812.53;;;1.45;100.00
78373;BME280;67656;52.074;4.758;2023-03-12T04:46:44;100802.13;;;1.45;100.00
78373;BME280;67656;52.074;4.758;2023-03-12T04:51:49;100790.03;;;1.50;100.00
78373;BME280;67656;52.074;4.758;2023-03-12T04:56:51;100789.13;;;1.46;100.00
78373;BME280;67656;52.074;4.758;2023-03-12T05:01:54;100788.28;;;1.44;100.00
78373;BME280;67656;52.074;4.758;2023-03-12T05:06:59;100777.78;;;1.38;100.00
78373;BME280;67656;52.074;4.758;2023-03-12T05:12:00;100786.41;;;1.34;100.00
78373;BME280;67656;52.074;4.758;2023-03-12T05:17:00;100789.03;;;1.34;100.00
78373;BME280;67656;52.074;4.758;2023-03-12T05:22:01;100789.91;;;1.34;100.00
78373;BME280;67656;52.074;4.758;2023-03-12T05:27:01;100791.69;;;1.38;100.00
78373;BME280;67656;52.074;4.758;2023-03-12T05:32:04;100786.50;;;1.38;100.00
78373;BME280;67656;52.074;4.758;2023-03-12T05:37:04;100781.28;;;1.40;100.00
78373;BME280;67656;52.074;4.758;2023-03-12T05:42:06;100792.59;;;1.42;100.00
78373;BME280;67656;52.074;4.758;2023-03-12T05:47:06;100780.47;;;1.47;100.00
78373;BME280;67656;52.074;4.758;2023-03-12T05:52:07;100776.16;;;1.48;100.00
78373;BME280;67656;52.074;4.758;2023-03-12T05:57:08;100774.44;;;1.50;100.00
78373;BME280;67656;52.074;4.758;2023-03-12T06:02:08;100778.72;;;1.43;100.00
78373;BME280;67656;52.074;4.758;2023-03-12T06:07:09;100776.94;;;1.39;100.00
78373;BME280;67656;52.074;4.758;2023-03-12T06:12:09;100770.88;;;1.38;100.00
78373;BME280;67656;52.074;4.758;2023-03-12T06:17:35;100776.09;;;1.38;100.00
78373;BME280;67656;52.074;4.758;2023-03-12T06:22:38;100766.50;;;1.36;100.00
78373;BME280;67656;52.074;4.758;2023-03-12T06:27:38;100757.91;;;1.46;100.00
78373;BME280;67656;52.074;4.758;2023-03-12T06:32:38;100754.47;;;1.47;100.00
78373;BME280;67656;52.074;4.758;2023-03-12T06:37:38;100736.28;;;1.50;100.00
78373;BME280;67656;52.074;4.758;2023-03-12T06:42:39;100745.00;;;1.56;100.00
78373;BME280;67656;52.074;4.758;2023-03-12T06:47:39;100728.59;;;1.66;100.00
78373;BME280;67656;52.074;4.758;2023-03-12T06:52:39;100719.13;;;1.76;100.00
78373;BME280;67656;52.074;4.758;2023-03-12T06:57:40;100733.84;;;1.77;100.00
78373;BME280;67656;52.074;4.758;2023-03-12T07:02:40;100732.22;;;1.90;100.00
78373;BME280;67656;52.074;4.758;2023-03-12T07:07:40;100729.59;;;1.91;100.00
78373;BME280;67656;52.074;4.758;2023-03-12T07:12:41;100728.78;;;1.97;100.00
78373;BME280;67656;52.074;4.758;2023-03-12T07:17:41;100746.19;;;2.04;100.00
78373;BME280;67656;52.074;4.758;2023-03-12T07:22:41;100742.72;;;2.05;100.00
78373;BME280;67656;52.074;4.758;2023-03-12T07:27:41;100740.13;;;2.10;100.00
78373;BME280;67656;52.074;4.758;2023-03-12T07:32:42;100744.53;;;2.19;100.00
78373;BME280;67656;52.074;4.758;2023-03-12T07:37:42;100744.53;;;2.25;100.00
78373;BME280;67656;52.074;4.758;2023-03-12T07:42:42;100759.28;;;2.23;100.00
78373;BME280;67656;52.074;4.758;2023-03-12T07:47:43;100749.78;;;2.28;100.00
78373;BME280;67656;52.074;4.758;2023-03-12T07:52:44;100744.59;;;2.37;100.00
78373;BME280;67656;52.074;4.758;2023-03-12T07:57:44;100763.72;;;2.49;100.00
78373;BME280;67656;52.074;4.758;2023-03-12T08:02:45;100755.09;;;2.60;100.00
78373;BME280;67656;52.074;4.758;2023-03-12T08:07:45;100747.31;;;2.71;100.00
78373;BME280;67656;52.074;4.758;2023-03-12T08:12:45;100749.97;;;2.81;100.00
78373;BME280;67656;52.074;4.758;2023-03-12T08:17:46;100758.63;;;2.80;100.00
78373;BME280;67656;52.074;4.758;2023-03-12T08:22:46;100760.41;;;2.90;100.00
78373;BME280;67656;52.074;4.758;2023-03-12T08:27:46;100770.00;;;3.14;100.00
78373;BME280;67656;52.074;4.758;2023-03-12T08:32:47;100772.63;;;3.37;100.00
78373;BME280;67656;52.074;4.758;2023-03-12T08:37:47;100761.31;;;3.51;100.00
78373;BME280;67656;52.074;4.758;2023-03-12T08:42:47;100763.91;;;3.79;100.00
78373;BME280;67656;52.074;4.758;2023-03-12T08:47:50;100770.88;;;3.92;100.00
78373;BME280;67656;52.074;4.758;2023-03-12T08:52:50;100784.75;;;3.97;100.00
78373;BME280;67656;52.074;4.758;2023-03-12T08:57:51;100777.81;;;4.09;100.00
78373;BME280;67656;52.074;4.758;2023-03-12T09:02:51;100778.59;;;4.33;100.00
78373;BME280;67656;52.074;4.758;2023-03-12T09:07:51;100770.63;;;4.64;100.00
78373;BME280;67656;52.074;4.758;2023-03-12T09:12:52;100761.78;;;4.89;100.00
78373;BME280;67656;52.074;4.758;2023-03-12T09:17:52;100765.97;;;5.18;100.00
78373;BME280;67656;52.074;4.758;2023-03-12T09:22:53;100771.81;;;5.51;100.00
78373;BME280;67656;52.074;4.758;2023-03-12T09:27:53;100778.59;;;5.76;100.00
78373;BME280;67656;52.074;4.758;2023-03-12T09:32:53;100774.03;;;5.96;100.00
78373;BME280;67656;52.074;4.758;2023-03-12T09:37:54;100778.34;;;6.02;100.00
78373;BME280;67656;52.074;4.758;2023-03-12T09:42:59;100784.97;;;6.37;100.00
78373;BME280;67656;52.074;4.758;2023-03-12T09:48:04;100790.16;;;6.43;100.00
78373;BME280;67656;52.074;4.758;2023-03-12T09:58:30;100797.03;;;6.51;100.00
78373;BME280;67656;52.074;4.758;2023-03-12T10:03:46;100782.84;;;6.70;100.00
78373;BME280;67656;52.074;4.758;2023-03-12T10:09:11;100784.16;;;7.01;100.00
78373;BME280;67656;52.074;4.758;2023-03-12T10:30:55;100791.91;;;7.66;100.00
78373;BME280;67656;52.074;4.758;2023-03-12T10:35:56;100780.50;;;7.67;100.00
78373;BME280;67656;52.074;4.758;2023-03-12T10:40:56;100776.94;;;7.72;100.00
78373;BME280;67656;52.074;4.758;2023-03-12T10:46:33;100793.47;;;7.78;100.00
78373;BME280;67656;52.074;4.758;2023-03-12T10:52:05;100801.34;;;7.78;100.00
78373;BME280;67656;52.074;4.758;2023-03-12T10:57:06;100799.47;;;7.85;100.00
78373;BME280;67656;52.074;4.758;2023-03-12T11:02:39;100807.28;;;7.88;100.00
78373;BME280;67656;52.074;4.758;2023-03-12T11:07:43;100814.41;;;7.83;100.00
78373;BME280;67656;52.074;4.758;2023-03-12T11:13:04;100828.38;;;7.85;100.00
78373;BME280;67656;52.074;4.758;2023-03-12T11:23:29;100838.19;;;7.75;100.00
78373;BME280;67656;52.074;4.758;2023-03-12T11:28:49;100842.50;;;7.78;100.00
78373;BME280;67656;52.074;4.758;2023-03-12T11:33:53;100821.06;;;8.03;100.00
78373;BME280;67656;52.074;4.758;2023-03-12T11:38:59;100815.88;;;8.48;100.00
78373;BME280;67656;52.074;4.758;2023-03-12T11:49:32;100792.91;;;8.99;100.00
78373;BME280;67656;52.074;4.758;2023-03-12T11:59:52;100759.78;;;9.26;100.00
78373;BME280;67656;52.074;4.758;2023-03-12T12:10:31;100765.78;;;9.33;100.00
78373;BME280;67656;52.074;4.758;2023-03-12T12:20:41;100740.56;;;9.59;100.00
78373;BME280;67656;52.074;4.758;2023-03-12T12:31:11;100761.41;;;9.68;100.00
78373;BME280;67656;52.074;4.758;2023-03-12T12:36:17;100755.50;;;9.58;100.00
78373;BME280;67656;52.074;4.758;2023-03-12T12:41:22;100747.72;;;9.53;100.00
78373;BME280;67656;52.074;4.758;2023-03-12T12:46:27;100723.09;;;9.55;100.00
78373;BME280;67656;52.074;4.758;2023-03-12T12:51:34;100714.03;;;9.65;100.00
78373;BME280;67656;52.074;4.758;2023-03-12T12:56:48;100712.41;;;9.61;100.00
78373;BME280;67656;52.074;4.758;2023-03-12T13:01:52;100715.69;;;9.69;100.00
78373;BME280;67656;52.074;4.758;2023-03-12T13:12:09;100704.19;;;9.73;100.00
78373;BME280;67656;52.074;4.758;2023-03-12T13:17:25;100715.38;;;9.81;100.00
78373;BME280;67656;52.074;4.758;2023-03-12T13:22:34;100713.22;;;9.96;100.00
78373;BME280;67656;52.074;4.758;2023-03-12T13:27:40;100698.72;;;10.12;100.00
78373;BME280;67656;52.074;4.758;2023-03-12T13:43:02;100710.03;;;10.48;100.00
78373;BME280;67656;52.074;4.758;2023-03-12T13:48:13;100713.75;;;10.40;100.00
78373;BME280;67656;52.074;4.758;2023-03-12T13:53:20;100714.50;;;10.45;100.00
78373;BME280;67656;52.074;4.758;2023-03-12T13:58:21;100727.63;;;10.77;100.00
78373;BME280;67656;52.074;4.758;2023-03-12T14:03:28;100728.19;;;10.27;100.00
78373;BME280;67656;52.074;4.758;2023-03-12T14:08:46;100741.13;;;10.35;100.00
78373;BME280;67656;52.074;4.758;2023-03-12T14:19:19;100756.25;;;10.61;100.00
78373;BME280;67656;52.074;4.758;2023-03-12T14:29:40;100751.66;;;10.36;100.00
78373;BME280;67656;52.074;4.758;2023-03-12T14:34:44;100747.31;;;10.35;100.00
78373;BME280;67656;52.074;4.758;2023-03-12T14:39:52;100751.13;;;10.25;100.00
78373;BME280;67656;52.074;4.758;2023-03-12T14:50:03;100759.00;;;10.58;100.00
78373;BME280;67656;52.074;4.758;2023-03-12T14:55:11;100755.16;;;10.68;100.00
78373;BME280;67656;52.074;4.758;2023-03-12T15:00:26;100745.47;;;10.39;100.00
78373;BME280;67656;52.074;4.758;2023-03-12T15:05:27;100753.88;;;10.20;100.00
78373;BME280;67656;52.074;4.758;2023-03-12T15:10:31;100750.13;;;9.96;100.00
78373;BME280;67656;52.074;4.758;2023-03-12T15:15:41;100738.50;;;10.03;100.00
78373;BME280;67656;52.074;4.758;2023-03-12T15:20:42;100735.88;;;10.03;100.00
78373;BME280;67656;52.074;4.758;2023-03-12T15:25:43;100734.31;;;9.96;100.00
78373;BME280;67656;52.074;4.758;2023-03-12T15:30:44;100733.97;;;10.08;100.00
78373;BME280;67656;52.074;4.758;2023-03-12T15:41:01;100714.66;;;9.75;100.00
78373;BME280;67656;52.074;4.758;2023-03-12T15:46:04;100719.94;;;9.75;100.00
78373;BME280;67656;52.074;4.758;2023-03-12T15:51:13;100708.63;;;9.71;100.00
78373;BME280;67656;52.074;4.758;2023-03-12T16:01:16;100705.00;;;9.75;100.00
78373;BME280;67656;52.074;4.758;2023-03-12T16:06:19;100703.50;;;9.65;100.00
78373;BME280;67656;52.074;4.758;2023-03-12T16:11:25;100694.00;;;9.59;100.00
78373;BME280;67656;52.074;4.758;2023-03-12T16:16:26;100710.50;;;9.66;100.00
78373;BME280;67656;52.074;4.758;2023-03-12T16:21:26;100708.78;;;9.65;100.00
78373;BME280;67656;52.074;4.758;2023-03-12T16:26:26;100703.88;;;9.51;100.00
78373;BME280;67656;52.074;4.758;2023-03-12T16:31:27;100693.53;;;9.43;100.00
78373;BME280;67656;52.074;4.758;2023-03-12T16:36:27;100688.34;;;9.40;100.00
78373;BME280;67656;52.074;4.758;2023-03-12T16:41:27;100701.59;;;9.37;100.00
78373;BME280;67656;52.074;4.758;2023-03-12T16:46:30;100714.38;;;9.16;100.00
78373;BME280;67656;52.074;4.758;2023-03-12T16:51:30;100708.06;;;8.86;100.00
78373;BME280;67656;52.074;4.758;2023-03-12T16:56:31;100708.63;;;8.63;100.00
78373;BME280;67656;52.074;4.758;2023-03-12T17:01:31;100714.84;;;8.58;100.00
78373;BME280;67656;52.074;4.758;2023-03-12T17:06:31;100714.91;;;8.55;100.00
78373;BME280;67656;52.074;4.758;2023-03-12T17:11:32;100707.03;;;8.54;100.00
78373;BME280;67656;52.074;4.758;2023-03-12T17:16:32;100704.31;;;8.58;100.00
78373;BME280;67656;52.074;4.758;2023-03-12T17:21:32;100706.16;;;8.53;100.00
78373;BME280;67656;52.074;4.758;2023-03-12T17:26:33;100716.81;;;8.47;100.00
78373;BME280;67656;52.074;4.758;2023-03-12T17:31:34;100719.31;;;8.53;100.00
78373;BME280;67656;52.074;4.758;2023-03-12T17:36:36;100726.16;;;8.62;100.00
78373;BME280;67656;52.074;4.758;2023-03-12T17:41:36;100733.16;;;8.63;100.00
78373;BME280;67656;52.074;4.758;2023-03-12T17:46:36;100715.41;;;8.71;100.00
78373;BME280;67656;52.074;4.758;2023-03-12T17:51:37;100716.41;;;8.66;100.00
78373;BME280;67656;52.074;4.758;2023-03-12T17:56:37;100709.38;;;8.68;100.00
78373;BME280;67656;52.074;4.758;2023-03-12T18:01:37;100707.50;;;8.73;100.00
78373;BME280;67656;52.074;4.758;2023-03-12T18:06:37;100707.56;;;8.70;100.00
78373;BME280;67656;52.074;4.758;2023-03-12T18:11:38;100718.03;;;8.73;100.00
78373;BME280;67656;52.074;4.758;2023-03-12T18:16:38;100698.66;;;8.75;100.00
78373;BME280;67656;52.074;4.758;2023-03-12T18:21:38;100707.63;;;8.67;100.00
78373;BME280;67656;52.074;4.758;2023-03-12T18:26:39;100706.63;;;8.72;100.00
78373;BME280;67656;52.074;4.758;2023-03-12T18:31:39;100706.56;;;8.75;100.00
78373;BME280;67656;52.074;4.758;2023-03-12T18:36:39;100703.88;;;8.79;100.00
78373;BME280;67656;52.074;4.758;2023-03-12T18:41:40;100709.25;;;8.72;100.00
78373;BME280;67656;52.074;4.758;2023-03-12T18:46:40;100697.94;;;8.69;100.00
78373;BME280;67656;52.074;4.758;2023-03-12T18:51:40;100711.31;;;8.59;100.00
78373;BME280;67656;52.074;4.758;2023-03-12T18:56:40;100685.91;;;8.58;100.00
78373;BME280;67656;52.074;4.758;2023-03-12T19:01:42;100698.31;;;8.52;100.00
78373;BME280;67656;52.074;4.758;2023-03-12T19:06:43;100679.97;;;8.50;100.00
78373;BME280;67656;52.074;4.758;2023-03-12T19:11:45;100691.22;;;8.55;100.00
78373;BME280;67656;52.074;4.758;2023-03-12T19:16:45;100680.53;;;8.63;100.00
78373;BME280;67656;52.074;4.758;2023-03-12T19:21:47;100669.78;;;8.72;100.00
78373;BME280;67656;52.074;4.758;2023-03-12T19:26:47;100677.50;;;8.80;100.00
78373;BME280;67656;52.074;4.758;2023-03-12T19:31:47;100670.56;;;8.76;100.00
78373;BME280;67656;52.074;4.758;2023-03-12T19:36:47;100665.31;;;8.76;100.00
78373;BME280;67656;52.074;4.758;2023-03-12T19:41:49;100665.31;;;8.76;100.00
78373;BME280;67656;52.074;4.758;2023-03-12T19:46:49;100647.91;;;8.70;100.00
78373;BME280;67656;52.074;4.758;2023-03-12T19:51:49;100647.88;;;8.72;100.00
78373;BME280;67656;52.074;4.758;2023-03-12T19:56:50;100638.16;;;8.75;100.00
78373;BME280;67656;52.074;4.758;2023-03-12T20:01:50;100635.81;;;8.63;100.00
78373;BME280;67656;52.074;4.758;2023-03-12T20:06:51;100619.91;;;8.68;100.00
78373;BME280;67656;52.074;4.758;2023-03-12T20:11:51;100618.88;;;8.75;100.00
78373;BME280;67656;52.074;4.758;2023-03-12T20:16:51;100612.00;;;8.69;100.00
78373;BME280;67656;52.074;4.758;2023-03-12T20:21:52;100595.50;;;8.63;100.00
78373;BME280;67656;52.074;4.758;2023-03-12T20:26:52;100590.06;;;8.69;100.00
78373;BME280;67656;52.074;4.758;2023-03-12T20:31:52;100590.31;;;8.59;100.00
78373;BME280;67656;52.074;4.758;2023-03-12T20:36:52;100584.25;;;8.56;100.00
78373;BME280;67656;52.074;4.758;2023-03-12T20:41:53;100573.94;;;8.45;100.00
78373;BME280;67656;52.074;4.758;2023-03-12T20:46:53;100559.75;;;8.54;100.00
78373;BME280;67656;52.074;4.758;2023-03-12T20:51:53;100551.97;;;8.49;100.00
78373;BME280;67656;52.074;4.758;2023-03-12T20:56:54;100541.16;;;8.62;100.00
78373;BME280;67656;52.074;4.758;2023-03-12T21:01:54;100531.72;;;8.53;100.00
78373;BME280;67656;52.074;4.758;2023-03-12T21:06:54;100527.25;;;8.56;100.00
78373;BME280;67656;52.074;4.758;2023-03-12T21:11:55;100524.78;;;8.50;100.00
78373;BME280;67656;52.074;4.758;2023-03-12T21:16:55;100503.94;;;8.39;100.00
78373;BME280;67656;52.074;4.758;2023-03-12T21:21:55;100500.69;;;8.29;100.00
78373;BME280;67656;52.074;4.758;2023-03-12T21:26:55;100492.25;;;8.15;100.00
78373;BME280;67656;52.074;4.758;2023-03-12T21:31:56;100481.31;;;7.96;100.00
78373;BME280;67656;52.074;4.758;2023-03-12T21:36:59;100471.72;;;7.93;100.00
78373;BME280;67656;52.074;4.758;2023-03-12T21:42:00;100460.38;;;7.91;100.00
78373;BME280;67656;52.074;4.758;2023-03-12T21:47:02;100463.09;;;7.88;100.00
78373;BME280;67656;52.074;4.758;2023-03-12T21:52:02;100449.94;;;7.88;100.00
78373;BME280;67656;52.074;4.758;2023-03-12T21:57:03;100447.53;;;7.79;100.00
78373;BME280;67656;52.074;4.758;2023-03-12T22:02:04;100446.63;;;7.80;100.00
78373;BME280;67656;52.074;4.758;2023-03-12T22:07:05;100435.34;;;7.76;100.00
78373;BME280;67656;52.074;4.758;2023-03-12T22:12:05;100436.47;;;7.66;100.00
78373;BME280;67656;52.074;4.758;2023-03-12T22:17:06;100426.34;;;7.49;100.00
78373;BME280;67656;52.074;4.758;2023-03-12T22:22:06;100408.91;;;7.45;100.00
78373;BME280;67656;52.074;4.758;2023-03-12T22:27:06;100409.81;;;7.44;100.00
78373;BME280;67656;52.074;4.758;2023-03-12T22:32:07;100400.16;;;7.44;100.00
78373;BME280;67656;52.074;4.758;2023-03-12T22:37:07;100385.13;;;7.52;100.00
78373;BME280;67656;52.074;4.758;2023-03-12T22:42:08;100389.41;;;7.55;100.00
78373;BME280;67656;52.074;4.758;2023-03-12T22:47:08;100374.53;;;7.56;100.00
78373;BME280;67656;52.074;4.758;2023-03-12T22:52:08;100355.22;;;7.58;100.00
78373;BME280;67656;52.074;4.758;2023-03-12T22:57:08;100350.78;;;7.60;100.00
78373;BME280;67656;52.074;4.758;2023-03-12T23:02:09;100334.16;;;7.61;100.00
78373;BME280;67656;52.074;4.758;2023-03-12T23:07:09;100319.22;;;7.62;100.00
78373;BME280;67656;52.074;4.758;2023-03-12T23:12:09;100312.31;;;7.58;100.00
78373;BME280;67656;52.074;4.758;2023-03-12T23:17:10;100295.66;;;7.59;100.00
78373;BME280;67656;52.074;4.758;2023-03-12T23:22:10;100274.59;;;7.62;100.00
78373;BME280;67656;52.074;4.758;2023-03-12T23:27:10;100256.25;;;7.60;100.00
78373;BME280;67656;52.074;4.758;2023-03-12T23:32:11;100236.84;;;7.66;100.00
78373;BME280;67656;52.074;4.758;2023-03-12T23:37:11;100227.88;;;7.75;100.00
78373;BME280;67656;52.074;4.758;2023-03-12T23:42:11;100213.66;;;7.82;100.00
78373;BME280;67656;52.074;4.758;2023-03-12T23:47:12;100204.63;;;7.92;100.00
78373;BME280;67656;52.074;4.758;2023-03-12T23:52:12;100180.75;;;8.00;100.00
78373;BME280;67656;52.074;4.758;2023-03-12T23:57:12;100178.75;;;8.10;100.00
